Time;durP1;ratioP1;P1;durP2;ratioP2;P2;SDS_P1;SDS_P2;PMS_P1;PMS_P2;Temp;Humidity;BMP_temperature;BMP_pressure;BME280_temperature;BME280_humidity;BME280_pressure;Samples;Min_cycle;Max_cycle;Signal;HPM_P1;HPM_P2
2021/05/21 00:00:05;;;;;;;3.10;1.13;;;;;;;11.16;61.91;100495.13;347231;28;24408;-67
2021/05/21 00:00:17;;;;;;;2.80;1.08;;;;;;;11.19;62.37;100494.94;348011;28;1214;-65
2021/05/21 00:00:29;;;;;;;2.80;0.90;;;;;;;11.22;61.92;100493.94;348024;28;1153;-66
2021/05/21 00:00:41;;;;;;;3.33;0.88;;;;;;;11.24;62.09;100487.63;348118;28;1066;-65
2021/05/21 00:00:53;;;;;;;5.25;1.20;;;;;;;11.27;61.86;100500.66;349398;28;1084;-67
2021/05/21 00:01:05;;;;;;;4.22;1.10;;;;;;;11.25;61.35;100494.63;349464;28;1072;-64
2021/05/21 00:01:17;;;;;;;4.30;1.00;;;;;;;11.27;61.53;100492.75;349363;28;1057;-64
2021/05/21 00:01:29;;;;;;;3.92;0.95;;;;;;;11.29;61.70;100493.53;349566;28;1143;-64
2021/05/21 00:01:41;;;;;;;3.75;1.00;;;;;;;11.30;61.54;100489.91;350771;28;1137;-63
2021/05/21 00:01:53;;;;;;;2.70;0.90;;;;;;;11.33;61.40;100488.91;350735;28;1122;-67
2021/05/21 00:02:04;;;;;;;3.50;0.90;;;;;;;11.34;61.90;100491.47;350291;28;1079;-67
2021/05/21 00:02:16;;;;;;;4.20;0.90;;;;;;;11.33;61.35;100486.25;350777;28;1142;-66
2021/05/21 00:02:28;;;;;;;4.18;0.93;;;;;;;11.29;61.31;100482.94;351075;28;1667;-66
2021/05/21 00:02:40;;;;;;;4.13;0.90;;;;;;;11.27;61.27;100495.38;352129;28;1631;-67
2021/05/21 00:02:53;;;;;;;4.20;0.90;;;;;;;11.23;61.69;100487.72;352178;28;1216;-66
2021/05/21 00:03:05;;;;;;;4.45;0.90;;;;;;;11.29;61.64;100492.66;352248;28;1228;-66
2021/05/21 00:03:23;;;;;;;3.15;0.80;;;;;;;11.29;61.95;100496.16;352027;28;2768;-63
2021/05/21 00:03:39;;;;;;;2.33;0.90;;;;;;;11.29;61.13;100495.28;349794;28;70832;-66
2021/05/21 00:03:55;;;;;;;3.33;0.90;;;;;;;11.34;61.85;100488.81;349707;28;73128;-66
2021/05/21 00:04:11;;;;;;;4.35;1.00;;;;;;;11.36;61.63;100489.59;349758;28;70133;-66
2021/05/21 00:04:30;;;;;;;3.15;0.90;;;;;;;11.28;61.17;100493.56;349305;28;69692;-66
2021/05/21 00:04:46;;;;;;;3.15;0.85;;;;;;;11.27;61.70;100490.09;352174;28;1619;-67
2021/05/21 00:04:58;;;;;;;2.72;1.00;;;;;;;11.26;61.97;100488.38;347853;28;75135;-65
2021/05/21 00:05:31;;;;;;;2.90;0.80;;;;;;;11.20;61.91;100494.00;349749;28;33995;-67
2021/05/21 00:05:43;;;;;;;3.58;0.90;;;;;;;11.08;62.37;100497.31;348142;28;72999;-67
2021/05/21 00:06:02;;;;;;;2.30;0.90;;;;;;;11.03;62.30;100493.13;350645;28;1203;-67
2021/05/21 00:06:14;;;;;;;3.78;0.80;;;;;;;11.06;62.21;100492.09;347110;28;94089;-66
2021/05/21 00:06:29;;;;;;;3.95;0.77;;;;;;;11.08;62.72;100486.72;351673;28;1477;-66
2021/05/21 00:06:43;;;;;;;3.67;0.80;;;;;;;11.11;62.33;100491.84;349761;28;72157;-65
2021/05/21 00:06:56;;;;;;;3.83;0.85;;;;;;;11.09;62.46;100486.66;352932;27;1077;-67
2021/05/21 00:07:11;;;;;;;4.32;0.90;;;;;;;11.16;62.12;100492.47;353700;27;1760;-63
2021/05/21 00:07:23;;;;;;;4.22;0.90;;;;;;;11.11;62.08;100483.91;351189;28;51582;-68
2021/05/21 00:07:39;;;;;;;3.42;0.90;;;;;;;11.07;62.17;100482.38;352038;28;2142;-65
2021/05/21 00:07:52;;;;;;;2.68;1.04;;;;;;;11.03;62.21;100493.13;350550;28;48015;-66
2021/05/21 00:08:04;;;;;;;3.03;0.95;;;;;;;11.01;62.44;100481.75;352198;28;1807;-67
2021/05/21 00:08:16;;;;;;;3.42;0.88;;;;;;;11.04;62.79;100486.03;352300;28;1154;-67
2021/05/21 00:08:29;;;;;;;3.75;0.88;;;;;;;11.06;62.83;100480.66;352301;28;1405;-68
2021/05/21 00:08:41;;;;;;;3.33;0.75;;;;;;;11.02;62.34;100480.84;353609;27;1028;-67
2021/05/21 00:08:54;;;;;;;3.80;0.70;;;;;;;11.03;62.44;100471.97;353604;28;1105;-65
2021/05/21 00:09:16;;;;;;;4.32;1.08;;;;;;;11.11;62.79;100476.00;351149;27;70594;-66
2021/05/21 00:09:27;;;;;;;3.72;1.25;;;;;;;11.13;62.55;100471.50;352281;28;1130;-66
2021/05/21 00:09:40;;;;;;;4.00;1.25;;;;;;;11.08;62.08;100484.09;352176;28;1205;-65
2021/05/21 00:09:52;;;;;;;3.47;0.98;;;;;;;11.06;62.68;100470.97;352259;28;1069;-67
2021/05/21 00:10:08;;;;;;;3.22;0.90;;;;;;;11.07;62.18;100472.66;350971;28;816;-66
2021/05/21 00:10:20;;;;;;;4.45;1.05;;;;;;;11.08;62.38;100476.16;348379;28;71221;-67
2021/05/21 00:10:32;;;;;;;4.40;0.90;;;;;;;11.05;62.07;100478.97;350828;28;1126;-66
2021/05/21 00:10:44;;;;;;;4.65;0.82;;;;;;;11.05;62.95;100471.88;349488;28;1189;-68
2021/05/21 00:10:57;;;;;;;3.88;0.80;;;;;;;11.08;62.82;100471.72;349434;28;1651;-66
2021/05/21 00:11:13;;;;;;;4.20;0.90;;;;;;;11.11;62.28;100479.47;349464;28;1197;-68
2021/05/21 00:11:25;;;;;;;3.15;0.90;;;;;;;11.08;62.29;100476.16;347628;28;69838;-66
2021/05/21 00:11:36;;;;;;;2.95;1.00;;;;;;;11.09;62.71;100470.78;350804;28;1072;-66
2021/05/21 00:11:48;;;;;;;3.45;1.00;;;;;;;11.12;62.50;100470.63;350907;28;1192;-67
2021/05/21 00:12:04;;;;;;;2.92;0.80;;;;;;;11.15;62.48;100469.59;349231;28;71495;-66
2021/05/21 00:12:15;;;;;;;2.97;0.80;;;;;;;11.15;62.75;100465.16;352240;28;1220;-65
2021/05/21 00:12:27;;;;;;;3.97;0.95;;;;;;;11.18;62.12;100474.72;352149;28;1314;-62
2021/05/21 00:12:40;;;;;;;4.50;1.08;;;;;;;11.19;62.41;100471.16;352107;28;1718;-65
2021/05/21 00:12:56;;;;;;;4.00;1.00;;;;;;;11.15;62.61;100474.88;351976;28;3000;-66
2021/05/21 00:13:07;;;;;;;3.90;0.82;;;;;;;11.06;62.29;100470.97;350557;28;49259;-67
2021/05/21 00:13:19;;;;;;;3.72;0.70;;;;;;;11.01;62.80;100468.53;351845;28;1779;-66
2021/05/21 00:13:32;;;;;;;3.05;0.70;;;;;;;11.02;62.73;100464.97;353629;27;1142;-67
2021/05/21 00:13:44;;;;;;;3.95;0.80;;;;;;;11.03;62.19;100466.69;353808;27;1029;-67
2021/05/21 00:13:55;;;;;;;3.33;0.90;;;;;;;11.03;62.34;100468.47;353795;27;1112;-66
2021/05/21 00:14:07;;;;;;;3.70;1.00;;;;;;;11.03;62.44;100465.81;353761;27;1104;-66
2021/05/21 00:14:20;;;;;;;3.08;0.70;;;;;;;11.00;62.60;100476.56;351286;28;1670;-67
2021/05/21 00:14:32;;;;;;;2.45;0.70;;;;;;;10.96;62.65;100467.97;352301;28;788;-65
2021/05/21 00:14:43;;;;;;;2.72;0.75;;;;;;;10.96;62.99;100480.31;352244;28;1068;-67
2021/05/21 00:14:55;;;;;;;2.40;0.80;;;;;;;10.96;63.08;100469.72;352368;28;1041;-64
2021/05/21 00:15:11;;;;;;;2.08;0.73;;;;;;;10.96;62.50;100475.88;352298;28;1082;-66
2021/05/21 00:15:26;;;;;;;3.05;0.85;;;;;;;10.99;62.99;100470.44;349887;28;70802;-64
2021/05/21 00:15:39;;;;;;;4.28;1.10;;;;;;;11.05;62.47;100479.81;350720;28;47573;-64
2021/05/21 00:15:54;;;;;;;3.60;1.08;;;;;;;11.08;62.85;100465.59;349748;28;71311;-67
2021/05/21 00:16:06;;;;;;;2.95;0.93;;;;;;;11.07;62.23;100470.00;352194;28;1436;-68
2021/05/21 00:16:19;;;;;;;3.08;0.90;;;;;;;11.12;62.80;100472.41;352237;28;1096;-66
2021/05/21 00:16:31;;;;;;;3.83;1.00;;;;;;;11.19;63.12;100476.44;352127;28;2964;-67
2021/05/21 00:16:44;;;;;;;4.07;1.10;;;;;;;11.22;62.54;100468.34;352095;28;3022;-65
2021/05/21 00:16:56;;;;;;;4.00;1.10;;;;;;;11.24;62.81;100469.13;352137;28;1416;-61
2021/05/21 00:17:08;;;;;;;4.00;1.10;;;;;;;11.21;62.62;100471.94;350608;28;1199;-67
2021/05/21 00:17:21;;;;;;;3.47;1.10;;;;;;;11.17;61.86;100468.59;350883;28;1189;-67
2021/05/21 00:17:33;;;;;;;3.65;1.10;;;;;;;11.17;62.29;100465.94;351388;28;1160;-66
2021/05/21 00:17:46;;;;;;;3.88;1.10;;;;;;;11.18;62.09;100472.06;352113;28;1129;-64
2021/05/21 00:17:58;;;;;;;4.43;1.10;;;;;;;11.17;62.51;100473.03;352245;28;1156;-63
2021/05/21 00:18:13;;;;;;;4.90;1.10;;;;;;;11.14;61.93;100475.81;352101;28;1982;-65
2021/05/21 00:18:28;;;;;;;4.88;1.30;;;;;;;11.07;62.13;100482.38;350706;28;46554;-66
2021/05/21 00:18:40;;;;;;;2.83;1.10;;;;;;;10.98;62.40;100467.88;349295;28;47736;-61
2021/05/21 00:18:54;;;;;;;3.97;0.90;;;;;;;10.98;62.80;100468.72;349820;28;25997;-65
2021/05/21 00:19:07;;;;;;;4.82;0.90;;;;;;;10.97;62.81;100472.28;351462;28;903;-63
2021/05/21 00:19:20;;;;;;;4.65;0.88;;;;;;;10.98;62.61;100473.16;352307;28;1941;-65
2021/05/21 00:19:36;;;;;;;4.78;1.10;;;;;;;11.02;62.36;100469.41;348797;28;98024;-67
2021/05/21 00:19:48;;;;;;;4.95;1.30;;;;;;;10.98;62.51;100474.00;352122;28;1195;-67
2021/05/21 00:20:03;;;;;;;4.88;1.35;;;;;;;10.98;62.48;100467.88;352050;28;1970;-66
2021/05/21 00:20:15;;;;;;;4.14;1.06;;;;;;;11.00;62.21;100471.28;350632;28;49041;-67
2021/05/21 00:20:27;;;;;;;4.38;1.10;;;;;;;11.05;63.04;100463.13;352223;28;1891;-66
2021/05/21 00:20:43;;;;;;;4.60;1.17;;;;;;;11.01;62.90;100465.06;353100;28;1057;-64
2021/05/21 00:20:56;;;;;;;4.75;1.20;;;;;;;11.05;62.98;100463.97;349707;28;71023;-63
2021/05/21 00:21:09;;;;;;;4.20;1.10;;;;;;;11.08;62.37;100462.94;352188;28;1106;-64
2021/05/21 00:21:22;;;;;;;3.70;1.00;;;;;;;11.06;62.70;100464.81;350561;28;2998;-66
2021/05/21 00:21:36;;;;;;;4.25;1.08;;;;;;;11.11;62.56;100462.78;349308;28;48151;-66
2021/05/21 00:21:48;;;;;;;4.43;1.20;;;;;;;11.09;62.31;100454.09;350733;28;1404;-66
2021/05/21 00:22:02;;;;;;;4.25;1.08;;;;;;;11.05;62.23;100473.69;350719;28;1502;-66
2021/05/21 00:22:14;;;;;;;5.18;1.05;;;;;;;10.94;61.98;100468.97;350011;28;23385;-67
2021/05/21 00:22:25;;;;;;;5.75;1.20;;;;;;;10.88;62.98;100477.22;350802;28;2149;-66
2021/05/21 00:22:42;;;;;;;5.13;1.30;;;;;;;10.91;62.74;100462.06;350796;28;1149;-62
2021/05/21 00:22:57;;;;;;;6.78;1.30;;;;;;;10.98;62.22;100465.22;349912;28;70100;-67
2021/05/21 00:23:09;;;;;;;6.47;1.20;;;;;;;10.99;62.24;100467.78;350850;28;1150;-65
2021/05/21 00:23:22;;;;;;;3.75;0.82;;;;;;;10.98;62.23;100468.72;351905;28;1193;-66
2021/05/21 00:23:40;;;;;;;2.50;0.90;;;;;;;10.88;62.61;100475.44;352281;28;1221;-67
2021/05/21 00:23:53;;;;;;;3.70;0.95;;;;;;;10.86;62.86;100464.09;351164;27;39442;-65
2021/05/21 00:24:06;;;;;;;3.88;0.95;;;;;;;10.90;62.59;100470.06;353466;27;1611;-66
2021/05/21 00:24:21;;;;;;;3.85;1.00;;;;;;;10.89;62.37;100476.28;349881;28;72156;-63
2021/05/21 00:24:36;;;;;;;3.72;0.90;;;;;;;10.91;62.43;100472.63;352201;28;2026;-64
2021/05/21 00:24:53;;;;;;;3.05;0.90;;;;;;;10.88;62.23;100462.22;349849;28;71427;-64
2021/05/21 00:25:06;;;;;;;4.20;1.10;;;;;;;10.94;63.20;100472.47;348820;28;70313;-63
2021/05/21 00:25:18;;;;;;;5.05;1.20;;;;;;;10.97;61.90;100474.94;348632;28;24168;-65
2021/05/21 00:25:31;;;;;;;4.20;1.08;;;;;;;10.97;62.26;100466.16;349219;28;2387;-66
2021/05/21 00:25:49;;;;;;;3.65;0.82;;;;;;;10.99;62.19;100467.78;346884;28;74808;-64
2021/05/21 00:26:04;;;;;;;3.20;0.92;;;;;;;10.97;62.18;100466.16;349477;28;1407;-64
2021/05/21 00:26:16;;;;;;;3.60;1.10;;;;;;;10.97;62.62;100466.16;346929;28;48429;-66
2021/05/21 00:26:29;;;;;;;5.03;1.17;;;;;;;10.99;62.16;100467.78;349249;28;3228;-65
2021/05/21 00:26:45;;;;;;;4.38;0.93;;;;;;;10.98;62.83;100467.88;346475;28;74352;-66
2021/05/21 00:26:57;;;;;;;3.30;0.85;;;;;;;10.98;62.91;100463.44;347885;28;1316;-68
2021/05/21 00:27:09;;;;;;;4.00;0.90;;;;;;;10.98;62.90;100457.31;347967;28;2985;-65
2021/05/21 00:27:22;;;;;;;5.53;1.08;;;;;;;11.01;62.64;100457.97;347870;28;1934;-66
2021/05/21 00:27:40;;;;;;;4.10;1.10;;;;;;;10.98;62.17;100466.06;348130;28;2056;-67
2021/05/21 00:27:54;;;;;;;3.30;1.00;;;;;;;11.05;62.83;100457.84;345632;28;71627;-68
2021/05/21 00:28:06;;;;;;;3.80;1.10;;;;;;;11.06;62.58;100459.53;348079;28;1049;-67
2021/05/21 00:28:17;;;;;;;3.47;1.10;;;;;;;11.06;62.73;100454.22;349002;28;1090;-67
2021/05/21 00:28:30;;;;;;;3.42;1.10;;;;;;;11.06;62.08;100460.41;349398;28;1167;-65
2021/05/21 00:28:45;;;;;;;3.13;1.15;;;;;;;11.04;62.39;100451.69;349450;28;1310;-67
2021/05/21 00:29:06;;;;;;;3.78;1.05;;;;;;;10.99;62.37;100459.00;348532;28;71936;-66
2021/05/21 00:29:21;;;;;;;5.40;1.45;;;;;;;11.00;62.85;100450.13;347221;28;72922;-66
2021/05/21 00:29:33;;;;;;;4.60;1.38;;;;;;;11.04;62.08;100456.97;350108;28;48222;-67
2021/05/21 00:29:45;;;;;;;3.85;1.05;;;;;;;11.01;62.85;100457.97;350767;28;1248;-66
2021/05/21 00:29:57;;;;;;;2.60;0.90;;;;;;;10.99;62.24;100454.59;350901;28;1298;-65
2021/05/21 00:30:12;;;;;;;2.03;0.70;;;;;;;10.99;62.43;100459.00;349722;28;25996;-65
2021/05/21 00:30:24;;;;;;;3.10;0.88;;;;;;;11.03;62.71;100457.88;350628;28;3026;-65
2021/05/21 00:30:39;;;;;;;4.25;0.98;;;;;;;11.09;62.85;100451.44;350727;28;1170;-63
2021/05/21 00:30:51;;;;;;;4.00;0.90;;;;;;;11.12;62.61;100453.91;346978;28;72669;-67
2021/05/21 00:31:10;;;;;;;3.45;0.90;;;;;;;11.07;61.90;100450.66;343868;28;33868;-65
2021/05/21 00:31:26;;;;;;;3.53;0.90;;;;;;;10.98;62.70;100452.88;342790;28;73484;-68
2021/05/21 00:31:38;;;;;;;3.75;0.90;;;;;;;10.94;62.12;100453.97;343891;28;773;-67
2021/05/21 00:31:50;;;;;;;3.25;0.88;;;;;;;10.97;63.16;100456.44;345269;28;1237;-63
2021/05/21 00:32:03;;;;;;;3.10;0.90;;;;;;;10.96;62.90;100449.47;345002;28;1224;-66
2021/05/21 00:32:20;;;;;;;2.78;0.90;;;;;;;10.94;62.57;100447.84;342469;28;74947;-66
2021/05/21 00:32:34;;;;;;;3.10;0.70;;;;;;;10.93;62.51;100454.88;344365;28;25775;-67
2021/05/21 00:32:49;;;;;;;3.72;0.90;;;;;;;10.96;62.73;100454.75;343696;28;73685;-64
2021/05/21 00:33:02;;;;;;;3.86;1.02;;;;;;;10.96;62.29;100448.59;347135;28;1049;-66
2021/05/21 00:33:15;;;;;;;5.03;1.05;;;;;;;10.97;62.86;100448.50;346688;28;1152;-66
2021/05/21 00:33:27;;;;;;;5.22;1.13;;;;;;;10.96;62.71;100449.47;346317;28;1235;-66
2021/05/21 00:33:42;;;;;;;4.85;1.17;;;;;;;10.98;62.77;100452.03;346395;28;2067;-64
2021/05/21 00:33:55;;;;;;;5.72;1.20;;;;;;;11.00;62.29;100445.72;344996;28;48958;-67
2021/05/21 00:34:07;;;;;;;5.00;1.17;;;;;;;10.99;62.49;100449.28;346477;28;2999;-68
2021/05/21 00:34:20;;;;;;;5.45;1.23;;;;;;;11.01;62.75;100444.75;346644;28;1065;-64
2021/05/21 00:34:32;;;;;;;5.47;1.27;;;;;;;11.07;62.99;100440.09;346819;28;1673;-63
2021/05/21 00:34:45;;;;;;;5.15;1.20;;;;;;;11.09;62.75;100443.53;345822;28;25565;-67
2021/05/21 00:34:58;;;;;;;4.40;1.00;;;;;;;11.10;62.58;100442.56;346635;28;2044;-64
2021/05/21 00:35:14;;;;;;;3.60;1.00;;;;;;;11.06;62.29;100449.81;347120;28;1153;-67
2021/05/21 00:35:27;;;;;;;3.00;0.90;;;;;;;10.99;62.37;100444.00;344242;28;71887;-67
2021/05/21 00:35:39;;;;;;;2.72;0.90;;;;;;;11.00;62.69;100444.84;346603;28;1143;-67
2021/05/21 00:35:52;;;;;;;2.80;0.95;;;;;;;11.02;62.63;100445.63;346720;28;919;-67
2021/05/21 00:36:05;;;;;;;3.05;1.02;;;;;;;10.98;62.69;100452.03;346493;28;1071;-63
2021/05/21 00:36:17;;;;;;;3.20;1.02;;;;;;;10.96;62.25;100446.81;345113;28;24304;-65
2021/05/21 00:36:29;;;;;;;3.45;0.93;;;;;;;10.96;62.99;100441.53;346618;28;2013;-65
2021/05/21 00:36:43;;;;;;;5.55;1.00;;;;;;;11.01;62.59;100451.84;344930;28;48011;-67
2021/05/21 00:36:55;;;;;;;6.20;1.23;;;;;;;11.05;62.59;100437.53;346670;28;1344;-68
2021/05/21 00:37:11;;;;;;;4.57;1.30;;;;;;;11.08;62.80;100440.00;346018;28;3020;-67
2021/05/21 00:37:23;;;;;;;4.00;1.15;;;;;;;11.10;62.91;100450.50;345739;28;50750;-65
2021/05/21 00:37:34;;;;;;;2.85;0.95;;;;;;;10.99;62.74;100451.06;348012;28;1092;-67
2021/05/21 00:37:48;;;;;;;2.03;0.90;;;;;;;10.92;62.84;100439.13;347914;28;1187;-64
2021/05/21 00:38:05;;;;;;;2.30;0.90;;;;;;;10.87;62.86;100449.94;346479;28;2020;-68
2021/05/21 00:38:18;;;;;;;3.35;0.90;;;;;;;10.91;63.05;100446.22;342182;28;69254;-67
2021/05/21 00:38:30;;;;;;;4.13;1.00;;;;;;;10.91;62.74;100451.50;345170;28;1122;-66
2021/05/21 00:38:42;;;;;;;4.38;1.00;;;;;;;10.87;62.35;100447.31;345193;28;1042;-66
2021/05/21 00:38:54;;;;;;;3.35;1.00;;;;;;;10.86;63.14;100443.78;345339;28;1069;-67
2021/05/21 00:39:06;;;;;;;3.47;1.00;;;;;;;10.87;62.88;100449.94;345320;28;1102;-66
2021/05/21 00:39:22;;;;;;;3.86;1.10;;;;;;;10.84;62.51;100444.84;345243;28;1070;-67
2021/05/21 00:39:33;;;;;;;3.70;1.00;;;;;;;10.82;63.28;100447.53;344372;28;24366;-67
2021/05/21 00:39:46;;;;;;;3.67;0.90;;;;;;;10.89;62.88;100457.78;345152;28;2140;-65
2021/05/21 00:39:58;;;;;;;3.40;0.80;;;;;;;10.91;62.95;100448.84;345882;28;1137;-69
2021/05/21 00:40:13;;;;;;;2.28;0.75;;;;;;;10.92;62.66;100444.41;346026;28;25129;-66
2021/05/21 00:40:24;;;;;;;3.20;0.82;;;;;;;10.94;62.84;100446.03;347944;28;1097;-67
2021/05/21 00:40:36;;;;;;;4.60;1.34;;;;;;;10.96;62.69;100452.09;347958;28;1040;-66
2021/05/21 00:40:52;;;;;;;5.00;1.42;;;;;;;10.97;62.91;100442.38;347930;28;2078;-66
2021/05/21 00:41:04;;;;;;;4.47;1.42;;;;;;;10.90;62.62;100448.94;345022;28;48325;-66
2021/05/21 00:41:23;;;;;;;4.30;1.17;;;;;;;10.92;62.78;100447.91;346513;28;2012;-65
2021/05/21 00:41:34;;;;;;;4.15;1.02;;;;;;;10.98;62.90;100444.09;344245;28;72138;-65
2021/05/21 00:41:47;;;;;;;4.55;1.30;;;;;;;11.03;63.12;100444.69;344422;28;1537;-66
2021/05/21 00:41:59;;;;;;;5.20;1.40;;;;;;;10.98;62.96;100452.88;345243;28;1292;-67
2021/05/21 00:42:12;;;;;;;4.32;1.30;;;;;;;10.96;62.70;100448.59;346234;28;1491;-66
2021/05/21 00:42:23;;;;;;;3.95;1.15;;;;;;;10.93;62.82;100444.31;346452;28;1670;-66
2021/05/21 00:42:39;;;;;;;4.93;1.08;;;;;;;10.92;62.79;100444.41;346303;28;3080;-67
2021/05/21 00:42:54;;;;;;;4.75;1.10;;;;;;;10.93;63.03;100443.47;342884;28;71907;-64
2021/05/21 00:43:06;;;;;;;4.70;1.20;;;;;;;10.89;63.07;100453.34;345119;28;2037;-65
2021/05/21 00:43:21;;;;;;;4.57;1.20;;;;;;;10.86;62.46;100442.94;345200;28;1145;-67
2021/05/21 00:43:33;;;;;;;3.00;0.98;;;;;;;10.82;62.81;100444.88;343674;28;48272;-66
2021/05/21 00:43:44;;;;;;;4.32;0.80;;;;;;;10.86;63.03;100445.59;345244;28;1205;-66
2021/05/21 00:43:57;;;;;;;4.85;0.90;;;;;;;10.87;62.92;100447.31;345626;28;1734;-65
2021/05/21 00:44:16;;;;;;;4.15;1.10;;;;;;;10.89;62.66;100448.06;344070;28;70882;-64
2021/05/21 00:44:29;;;;;;;3.85;1.05;;;;;;;10.88;62.53;100445.50;345776;28;23318;-64
2021/05/21 00:44:42;;;;;;;3.97;1.10;;;;;;;10.91;63.20;100446.22;346674;28;1156;-65
2021/05/21 00:44:55;;;;;;;4.07;1.20;;;;;;;10.91;63.24;100440.91;347747;28;1169;-64
2021/05/21 00:45:09;;;;;;;4.22;1.20;;;;;;;10.92;62.68;100439.13;346331;28;48302;-67
2021/05/21 00:45:20;;;;;;;4.15;1.13;;;;;;;10.93;63.19;100446.97;347784;28;3005;-64
2021/05/21 00:45:32;;;;;;;3.67;1.10;;;;;;;10.96;63.23;100452.09;347942;28;1125;-65
2021/05/21 00:45:44;;;;;;;2.75;1.02;;;;;;;11.02;62.86;100445.63;346596;28;1143;-66
2021/05/21 00:45:56;;;;;;;2.45;1.00;;;;;;;11.00;62.15;100444.84;346465;28;1148;-65
2021/05/21 00:46:09;;;;;;;3.35;1.05;;;;;;;10.96;62.69;100449.47;345215;28;893;-66
2021/05/21 00:46:21;;;;;;;3.83;1.05;;;;;;;10.91;62.55;100447.97;342520;28;2399;-65
2021/05/21 00:46:33;;;;;;;4.70;1.10;;;;;;;10.85;63.18;100457.97;342534;28;1105;-66
2021/05/21 00:46:44;;;;;;;4.18;1.05;;;;;;;10.86;62.73;100450.88;343936;28;1131;-67
2021/05/21 00:46:57;;;;;;;3.72;1.00;;;;;;;10.88;62.89;100451.66;343825;28;1295;-63
2021/05/21 00:47:13;;;;;;;4.32;1.00;;;;;;;10.90;63.35;100446.28;343810;28;1125;-67
2021/05/21 00:47:30;;;;;;;5.00;1.20;;;;;;;10.90;62.92;100455.06;342312;28;48438;-66
2021/05/21 00:47:46;;;;;;;4.32;1.00;;;;;;;10.90;63.33;100447.13;340786;28;71463;-66
2021/05/21 00:47:59;;;;;;;3.75;0.82;;;;;;;10.90;62.83;100444.50;342253;28;33779;-66
2021/05/21 00:48:17;;;;;;;3.92;1.00;;;;;;;10.88;62.51;100449.03;344937;28;3024;-64
2021/05/21 00:48:35;;;;;;;3.22;0.98;;;;;;;10.83;63.60;100449.25;344257;28;71752;-66
2021/05/21 00:48:47;;;;;;;2.78;0.85;;;;;;;10.89;62.84;100440.13;344260;28;49142;-61
2021/05/21 00:49:00;;;;;;;3.10;1.00;;;;;;;10.87;62.83;100449.94;346772;28;1136;-66
2021/05/21 00:49:17;;;;;;;3.00;1.00;;;;;;;10.93;63.08;100448.75;346672;28;1160;-67
2021/05/21 00:49:30;;;;;;;4.65;1.00;;;;;;;11.01;63.20;100447.41;342846;28;71387;-65
2021/05/21 00:49:45;;;;;;;4.90;1.17;;;;;;;11.06;63.15;100444.53;345274;28;1238;-65
2021/05/21 00:50:02;;;;;;;4.20;1.38;;;;;;;11.08;62.96;100445.28;344870;28;47917;-67
2021/05/21 00:50:15;;;;;;;4.40;1.20;;;;;;;10.99;63.15;100444.00;344250;28;71357;-67
2021/05/21 00:50:28;;;;;;;3.53;1.10;;;;;;;10.94;63.20;100432.81;346486;28;1162;-67
2021/05/21 00:50:44;;;;;;;3.22;1.10;;;;;;;10.89;62.60;100445.41;346443;28;1151;-66
2021/05/21 00:50:56;;;;;;;5.63;1.10;;;;;;;10.93;62.87;100444.31;342250;28;75048;-66
2021/05/21 00:51:09;;;;;;;5.98;1.12;;;;;;;10.96;62.77;100444.19;345037;28;1340;-64
2021/05/21 00:51:25;;;;;;;6.97;1.30;;;;;;;10.95;63.33;100453.03;344693;28;1204;-65
2021/05/21 00:51:43;;;;;;;6.68;1.17;;;;;;;10.93;62.97;100443.47;343583;28;70389;-65
2021/05/21 00:52:01;;;;;;;3.60;1.08;;;;;;;10.81;62.71;100442.31;345043;28;33351;-66
2021/05/21 00:52:17;;;;;;;4.13;1.20;;;;;;;10.77;64.02;100454.88;344845;28;50941;-65
2021/05/21 00:52:38;;;;;;;4.97;1.20;;;;;;;10.79;63.12;100452.13;342876;28;69678;-63
2021/05/21 00:52:51;;;;;;;5.10;1.90;;;;;;;10.85;63.31;100452.66;342573;28;70986;-66
2021/05/21 00:53:09;;;;;;;5.50;2.00;;;;;;;10.91;63.08;100455.91;342313;28;48479;-66
2021/05/21 00:53:22;;;;;;;5.45;1.27;;;;;;;10.84;63.41;100445.69;341545;28;68862;-64
2021/05/21 00:53:35;;;;;;;5.32;1.30;;;;;;;10.86;62.93;100450.88;343784;28;1237;-63
2021/05/21 00:53:53;;;;;;;4.90;1.10;;;;;;;10.84;63.30;100453.59;343786;28;2836;-65
2021/05/21 00:54:06;;;;;;;4.22;1.00;;;;;;;10.84;63.23;100444.84;340785;28;94380;-66
2021/05/21 00:54:28;;;;;;;4.60;1.00;;;;;;;10.85;63.11;100446.50;343148;28;23926;-63
2021/05/21 00:54:41;;;;;;;7.55;1.40;;;;;;;10.92;63.68;100450.56;343812;28;69981;-67
2021/05/21 00:54:54;;;;;;;6.40;1.48;;;;;;;10.92;63.52;100445.28;348059;28;1444;-65
2021/05/21 00:55:08;;;;;;;5.65;1.30;;;;;;;10.93;63.35;100443.47;347849;28;1144;-65
2021/05/21 00:55:30;;;;;;;4.25;1.17;;;;;;;10.99;62.93;100444.00;345033;28;75205;-66
2021/05/21 00:55:55;;;;;;;3.08;1.20;;;;;;;10.84;62.65;100458.03;345449;28;70961;-63
2021/05/21 00:56:09;;;;;;;4.63;1.20;;;;;;;10.83;63.54;100448.41;345460;28;71699;-62
2021/05/21 00:56:21;;;;;;;4.78;1.30;;;;;;;10.84;62.86;100447.47;346499;28;1152;-66
2021/05/21 00:56:37;;;;;;;3.85;1.10;;;;;;;10.81;63.42;100453.78;346640;28;1337;-65
2021/05/21 00:56:53;;;;;;;4.57;1.10;;;;;;;10.83;63.17;100456.31;342962;28;71492;-64
2021/05/21 00:57:07;;;;;;;4.55;1.10;;;;;;;10.79;63.33;100457.41;345259;28;1135;-65
2021/05/21 00:57:20;;;;;;;3.90;1.20;;;;;;;10.80;63.33;100449.41;345218;28;914;-65
2021/05/21 00:57:33;;;;;;;3.60;1.10;;;;;;;10.82;63.81;100444.88;343262;28;23944;-65
2021/05/21 00:57:53;;;;;;;3.85;0.90;;;;;;;10.84;63.09;100444.84;345615;28;71143;-66
2021/05/21 00:58:06;;;;;;;3.92;0.93;;;;;;;10.84;63.07;100450.13;346291;28;47097;-64
2021/05/21 00:58:26;;;;;;;3.70;1.00;;;;;;;10.92;63.76;100445.28;348665;28;1135;-65
2021/05/21 00:59:00;;;;;;;6.47;1.40;;;;;;;10.83;62.83;100446.59;348445;28;70430;-66
2021/05/21 00:59:13;;;;;;;6.30;1.38;;;;;;;10.89;62.93;100442.78;348143;28;34496;-64
2021/05/21 00:59:25;;;;;;;7.32;1.33;;;;;;;10.89;63.03;100444.56;349436;28;1080;-66
2021/05/21 00:59:36;;;;;;;5.32;1.02;;;;;;;10.86;62.76;100453.50;350773;28;1064;-67
2021/05/21 00:59:50;;;;;;;3.45;0.95;;;;;;;10.81;63.25;100442.31;349374;28;1224;-66
2021/05/21 01:00:04;;;;;;;3.35;1.05;;;;;;;10.83;63.31;100440.47;349349;28;1025;-65
2021/05/21 01:00:16;;;;;;;4.05;1.15;;;;;;;10.85;62.83;100436.81;348587;28;24824;-68
2021/05/21 01:00:29;;;;;;;4.88;1.30;;;;;;;10.91;63.11;100440.91;349357;28;2083;-65
2021/05/21 01:00:41;;;;;;;5.47;1.30;;;;;;;10.96;63.05;100441.53;349398;28;1311;-67
2021/05/21 01:00:54;;;;;;;6.75;1.30;;;;;;;10.96;63.36;100433.63;350718;28;1200;-65
2021/05/21 01:01:05;;;;;;;7.07;1.35;;;;;;;10.95;63.23;100442.47;350937;28;1174;-67
2021/05/21 01:01:18;;;;;;;5.93;1.27;;;;;;;10.94;63.06;100439.91;352194;28;1116;-67
2021/05/21 01:01:31;;;;;;;4.80;1.20;;;;;;;10.91;62.98;100446.22;352135;28;1313;-69
2021/05/21 01:01:45;;;;;;;4.50;1.30;;;;;;;10.92;63.20;100441.75;352356;28;1155;-66
2021/05/21 01:01:57;;;;;;;5.13;1.42;;;;;;;10.95;63.42;100442.47;352843;27;23855;-66
2021/05/21 01:02:09;;;;;;;5.07;1.40;;;;;;;10.98;62.81;100438.81;353631;28;1921;-66
2021/05/21 01:02:20;;;;;;;5.70;1.38;;;;;;;10.93;62.61;100444.31;353730;28;1103;-66
2021/05/21 01:02:33;;;;;;;6.63;1.35;;;;;;;10.94;63.33;100440.75;353640;27;1299;-67
2021/05/21 01:02:44;;;;;;;6.45;1.48;;;;;;;10.93;62.62;100446.13;353728;28;1267;-66
2021/05/21 01:02:56;;;;;;;5.75;1.55;;;;;;;10.88;62.88;100435.81;353614;27;1100;-67
2021/05/21 01:03:08;;;;;;;5.32;1.58;;;;;;;10.92;62.86;100437.34;353780;28;1130;-67
2021/05/21 01:03:20;;;;;;;4.78;1.40;;;;;;;10.96;62.96;100440.66;353728;27;1781;-67
2021/05/21 01:03:31;;;;;;;5.85;1.42;;;;;;;10.93;63.70;100438.19;354988;27;1736;-66
2021/05/21 01:03:43;;;;;;;6.18;1.50;;;;;;;10.93;63.19;100438.19;353925;27;1216;-63
2021/05/21 01:03:55;;;;;;;5.70;1.50;;;;;;;10.93;62.67;100440.84;353817;27;1184;-67
2021/05/21 01:04:07;;;;;;;6.63;1.58;;;;;;;10.90;63.00;100447.13;353999;27;1215;-67
2021/05/21 01:04:18;;;;;;;5.30;1.48;;;;;;;10.84;63.31;100445.69;354071;27;1043;-64
2021/05/21 01:04:30;;;;;;;6.68;1.50;;;;;;;10.84;63.22;100434.25;354009;27;1048;-60
2021/05/21 01:04:42;;;;;;;6.45;1.45;;;;;;;10.86;63.26;100443.78;353928;27;1151;-60
2021/05/21 01:04:53;;;;;;;7.13;1.30;;;;;;;10.88;63.47;100434.94;353942;27;1125;-60
2021/05/21 01:05:06;;;;;;;6.53;1.38;;;;;;;10.88;62.87;100440.22;354012;27;1071;-61